sensor_id;sensor_type;location;lat;lon;timestamp;temperature;humidity
14850;DHT22;7517;48.400;11.770;2023-05-17T00:02:18;13.70;77.70
14850;DHT22;7517;48.400;11.770;2023-05-17T00:04:45;13.70;77.30
14850;DHT22;7517;48.400;11.770;2023-05-17T00:07:13;13.60;77.60
14850;DHT22;7517;48.400;11.770;2023-05-17T00:09:40;13.60;78.40
14850;DHT22;7517;48.400;11.770;2023-05-17T00:12:10;13.60;77.80
14850;DHT22;7517;48.400;11.770;2023-05-17T00:14:37;13.60;77.90
14850;DHT22;7517;48.400;11.770;2023-05-17T00:17:04;13.60;78.00
14850;DHT22;7517;48.400;11.770;2023-05-17T00:19:31;13.60;78.30
14850;DHT22;7517;48.400;11.770;2023-05-17T00:21:59;13.60;77.40
14850;DHT22;7517;48.400;11.770;2023-05-17T00:24:26;13.60;77.20
14850;DHT22;7517;48.400;11.770;2023-05-17T00:26:53;13.60;77.00
14850;DHT22;7517;48.400;11.770;2023-05-17T00:29:22;13.60;77.00
14850;DHT22;7517;48.400;11.770;2023-05-17T00:31:50;13.60;77.00
14850;DHT22;7517;48.400;11.770;2023-05-17T00:34:17;13.50;77.40
14850;DHT22;7517;48.400;11.770;2023-05-17T00:36:45;13.50;77.40
14850;DHT22;7517;48.400;11.770;2023-05-17T00:39:12;13.50;77.20
14850;DHT22;7517;48.400;11.770;2023-05-17T00:41:39;13.50;77.20
14850;DHT22;7517;48.400;11.770;2023-05-17T00:44:07;13.50;77.00
14850;DHT22;7517;48.400;11.770;2023-05-17T00:46:36;13.50;76.90
14850;DHT22;7517;48.400;11.770;2023-05-17T00:49:03;13.50;76.70
14850;DHT22;7517;48.400;11.770;2023-05-17T00:51:32;13.50;76.80
14850;DHT22;7517;48.400;11.770;2023-05-17T00:54:02;13.40;76.60
14850;DHT22;7517;48.400;11.770;2023-05-17T00:56:30;13.40;76.80
14850;DHT22;7517;48.400;11.770;2023-05-17T00:58:59;13.40;77.10
14850;DHT22;7517;48.400;11.770;2023-05-17T01:01:26;13.40;77.10
14850;DHT22;7517;48.400;11.770;2023-05-17T01:03:56;13.40;76.60
14850;DHT22;7517;48.400;11.770;2023-05-17T01:06:23;13.40;76.40
14850;DHT22;7517;48.400;11.770;2023-05-17T01:08:51;13.40;76.50
14850;DHT22;7517;48.400;11.770;2023-05-17T01:11:30;13.40;76.70
14850;DHT22;7517;48.400;11.770;2023-05-17T01:14:12;13.40;76.00
14850;DHT22;7517;48.400;11.770;2023-05-17T01:16:54;13.40;76.20
14850;DHT22;7517;48.400;11.770;2023-05-17T01:19:47;13.40;76.20
14850;DHT22;7517;48.400;11.770;2023-05-17T01:22:29;13.30;75.40
14850;DHT22;7517;48.400;11.770;2023-05-17T01:25:10;13.30;76.30
14850;DHT22;7517;48.400;11.770;2023-05-17T01:27:47;13.30;76.80
14850;DHT22;7517;48.400;11.770;2023-05-17T01:30:18;13.30;77.20
14850;DHT22;7517;48.400;11.770;2023-05-17T01:32:46;13.30;77.30
14850;DHT22;7517;48.400;11.770;2023-05-17T01:35:15;13.30;77.30
14850;DHT22;7517;48.400;11.770;2023-05-17T01:37:42;13.30;77.00
14850;DHT22;7517;48.400;11.770;2023-05-17T01:40:11;13.30;76.90
14850;DHT22;7517;48.400;11.770;2023-05-17T01:42:40;13.30;76.70
14850;DHT22;7517;48.400;11.770;2023-05-17T01:45:16;13.30;76.80
14850;DHT22;7517;48.400;11.770;2023-05-17T01:47:54;13.30;76.40
14850;DHT22;7517;48.400;11.770;2023-05-17T01:50:31;13.20;76.40
14850;DHT22;7517;48.400;11.770;2023-05-17T01:53:09;13.20;76.70
14850;DHT22;7517;48.400;11.770;2023-05-17T01:55:46;13.20;76.70
14850;DHT22;7517;48.400;11.770;2023-05-17T01:58:19;13.20;77.00
14850;DHT22;7517;48.400;11.770;2023-05-17T02:01:01;13.20;77.40
14850;DHT22;7517;48.400;11.770;2023-05-17T02:03:30;13.20;77.30
14850;DHT22;7517;48.400;11.770;2023-05-17T02:05:57;13.20;77.00
14850;DHT22;7517;48.400;11.770;2023-05-17T02:08:25;13.20;76.70
14850;DHT22;7517;48.400;11.770;2023-05-17T02:10:52;13.10;76.80
14850;DHT22;7517;48.400;11.770;2023-05-17T02:13:20;13.10;76.90
14850;DHT22;7517;48.400;11.770;2023-05-17T02:15:47;13.20;77.00
14850;DHT22;7517;48.400;11.770;2023-05-17T02:18:16;13.10;76.90
14850;DHT22;7517;48.400;11.770;2023-05-17T02:20:46;13.20;76.70
14850;DHT22;7517;48.400;11.770;2023-05-17T02:23:13;13.10;76.40
14850;DHT22;7517;48.400;11.770;2023-05-17T02:25:41;13.10;76.10
14850;DHT22;7517;48.400;11.770;2023-05-17T02:28:08;13.10;75.90
14850;DHT22;7517;48.400;11.770;2023-05-17T02:30:36;13.10;75.60
14850;DHT22;7517;48.400;11.770;2023-05-17T02:33:05;13.10;75.70
14850;DHT22;7517;48.400;11.770;2023-05-17T02:35:34;13.10;75.80
14850;DHT22;7517;48.400;11.770;2023-05-17T02:38:02;13.10;75.80
14850;DHT22;7517;48.400;11.770;2023-05-17T02:40:29;13.10;75.80
14850;DHT22;7517;48.400;11.770;2023-05-17T02:42:58;13.00;75.50
14850;DHT22;7517;48.400;11.770;2023-05-17T02:45:27;13.00;75.50
14850;DHT22;7517;48.400;11.770;2023-05-17T02:47:56;13.00;75.50
14850;DHT22;7517;48.400;11.770;2023-05-17T02:50:27;13.00;76.10
14850;DHT22;7517;48.400;11.770;2023-05-17T02:52:57;13.00;75.50
14850;DHT22;7517;48.400;11.770;2023-05-17T02:55:24;13.00;75.10
14850;DHT22;7517;48.400;11.770;2023-05-17T02:57:52;13.00;75.40
14850;DHT22;7517;48.400;11.770;2023-05-17T03:00:19;13.00;75.50
14850;DHT22;7517;48.400;11.770;2023-05-17T03:02:46;13.00;75.60
14850;DHT22;7517;48.400;11.770;2023-05-17T03:05:13;13.00;75.30
14850;DHT22;7517;48.400;11.770;2023-05-17T03:07:41;13.00;75.00
14850;DHT22;7517;48.400;11.770;2023-05-17T03:10:11;12.90;74.70
14850;DHT22;7517;48.400;11.770;2023-05-17T03:12:38;12.90;74.90
14850;DHT22;7517;48.400;11.770;2023-05-17T03:15:07;12.90;75.10
14850;DHT22;7517;48.400;11.770;2023-05-17T03:17:34;12.90;75.00
14850;DHT22;7517;48.400;11.770;2023-05-17T03:20:03;12.90;74.70
14850;DHT22;7517;48.400;11.770;2023-05-17T03:22:34;12.90;74.60
14850;DHT22;7517;48.400;11.770;2023-05-17T03:25:01;12.80;74.50
14850;DHT22;7517;48.400;11.770;2023-05-17T03:27:32;12.80;74.70
14850;DHT22;7517;48.400;11.770;2023-05-17T03:30:01;12.80;74.70
14850;DHT22;7517;48.400;11.770;2023-05-17T03:32:30;12.80;74.70
14850;DHT22;7517;48.400;11.770;2023-05-17T03:34:57;12.80;74.50
14850;DHT22;7517;48.400;11.770;2023-05-17T03:37:25;12.80;74.60
14850;DHT22;7517;48.400;11.770;2023-05-17T03:39:53;12.80;74.90
14850;DHT22;7517;48.400;11.770;2023-05-17T03:42:20;12.80;74.80
14850;DHT22;7517;48.400;11.770;2023-05-17T03:44:49;12.80;74.70
14850;DHT22;7517;48.400;11.770;2023-05-17T03:47:16;12.70;74.60
14850;DHT22;7517;48.400;11.770;2023-05-17T03:49:44;12.70;74.60
14850;DHT22;7517;48.400;11.770;2023-05-17T03:52:11;12.70;75.10
14850;DHT22;7517;48.400;11.770;2023-05-17T03:54:38;12.70;75.00
14850;DHT22;7517;48.400;11.770;2023-05-17T03:57:05;12.70;74.90
14850;DHT22;7517;48.400;11.770;2023-05-17T03:59:33;12.70;74.80
14850;DHT22;7517;48.400;11.770;2023-05-17T04:02:02;12.70;74.80
14850;DHT22;7517;48.400;11.770;2023-05-17T04:04:29;12.70;74.80
14850;DHT22;7517;48.400;11.770;2023-05-17T04:06:57;12.70;74.90
14850;DHT22;7517;48.400;11.770;2023-05-17T04:09:24;12.70;74.90
14850;DHT22;7517;48.400;11.770;2023-05-17T04:11:52;12.60;74.90
14850;DHT22;7517;48.400;11.770;2023-05-17T04:14:19;12.70;75.20
14850;DHT22;7517;48.400;11.770;2023-05-17T04:16:47;12.60;75.10
14850;DHT22;7517;48.400;11.770;2023-05-17T04:19:15;12.60;75.00
14850;DHT22;7517;48.400;11.770;2023-05-17T04:21:43;12.60;74.70
14850;DHT22;7517;48.400;11.770;2023-05-17T04:24:11;12.60;74.70
14850;DHT22;7517;48.400;11.770;2023-05-17T04:26:39;12.60;74.90
14850;DHT22;7517;48.400;11.770;2023-05-17T04:29:06;12.60;74.90
14850;DHT22;7517;48.400;11.770;2023-05-17T04:31:33;12.60;74.70
14850;DHT22;7517;48.400;11.770;2023-05-17T04:34:00;12.60;75.00
14850;DHT22;7517;48.400;11.770;2023-05-17T04:36:29;12.60;74.70
14850;DHT22;7517;48.400;11.770;2023-05-17T04:38:57;12.60;74.30
14850;DHT22;7517;48.400;11.770;2023-05-17T04:41:24;12.70;74.40
14850;DHT22;7517;48.400;11.770;2023-05-17T04:43:53;12.70;74.30
14850;DHT22;7517;48.400;11.770;2023-05-17T04:46:22;12.70;74.10
14850;DHT22;7517;48.400;11.770;2023-05-17T04:48:50;12.70;75.00
14850;DHT22;7517;48.400;11.770;2023-05-17T04:51:17;12.70;74.50
14850;DHT22;7517;48.400;11.770;2023-05-17T04:53:46;12.70;74.60
14850;DHT22;7517;48.400;11.770;2023-05-17T04:56:14;12.70;74.70
14850;DHT22;7517;48.400;11.770;2023-05-17T04:58:41;12.70;74.40
14850;DHT22;7517;48.400;11.770;2023-05-17T05:01:09;12.80;74.20
14850;DHT22;7517;48.400;11.770;2023-05-17T05:03:36;12.70;74.40
14850;DHT22;7517;48.400;11.770;2023-05-17T05:06:04;12.80;74.40
14850;DHT22;7517;48.400;11.770;2023-05-17T05:08:32;12.80;74.50
14850;DHT22;7517;48.400;11.770;2023-05-17T05:11:01;12.90;74.50
14850;DHT22;7517;48.400;11.770;2023-05-17T05:13:28;12.90;74.40
14850;DHT22;7517;48.400;11.770;2023-05-17T05:15:56;12.90;74.50
14850;DHT22;7517;48.400;11.770;2023-05-17T05:18:23;12.90;74.50
14850;DHT22;7517;48.400;11.770;2023-05-17T05:20:51;13.00;74.40
14850;DHT22;7517;48.400;11.770;2023-05-17T05:23:18;13.00;74.20
14850;DHT22;7517;48.400;11.770;2023-05-17T05:25:45;13.00;74.30
14850;DHT22;7517;48.400;11.770;2023-05-17T05:28:14;13.00;74.00
14850;DHT22;7517;48.400;11.770;2023-05-17T05:30:41;13.00;73.80
14850;DHT22;7517;48.400;11.770;2023-05-17T05:33:09;13.00;73.60
14850;DHT22;7517;48.400;11.770;2023-05-17T05:35:36;13.00;73.80
14850;DHT22;7517;48.400;11.770;2023-05-17T05:38:04;13.00;73.30
14850;DHT22;7517;48.400;11.770;2023-05-17T05:40:31;13.00;73.30
14850;DHT22;7517;48.400;11.770;2023-05-17T05:42:58;13.00;73.10
14850;DHT22;7517;48.400;11.770;2023-05-17T05:45:27;13.00;73.20
14850;DHT22;7517;48.400;11.770;2023-05-17T05:47:55;13.00;73.00
14850;DHT22;7517;48.400;11.770;2023-05-17T05:50:22;13.00;72.90
14850;DHT22;7517;48.400;11.770;2023-05-17T05:52:49;13.00;73.20
14850;DHT22;7517;48.400;11.770;2023-05-17T05:55:17;12.90;73.20
14850;DHT22;7517;48.400;11.770;2023-05-17T05:57:44;13.00;73.10
14850;DHT22;7517;48.400;11.770;2023-05-17T06:00:12;12.90;73.30
14850;DHT22;7517;48.400;11.770;2023-05-17T06:02:43;12.90;73.20
14850;DHT22;7517;48.400;11.770;2023-05-17T06:05:11;12.90;73.00
14850;DHT22;7517;48.400;11.770;2023-05-17T06:07:38;12.90;72.90
14850;DHT22;7517;48.400;11.770;2023-05-17T06:10:06;13.00;73.00
14850;DHT22;7517;48.400;11.770;2023-05-17T06:12:34;12.90;72.90
14850;DHT22;7517;48.400;11.770;2023-05-17T06:15:03;13.00;72.90
14850;DHT22;7517;48.400;11.770;2023-05-17T06:17:32;13.00;73.20
14850;DHT22;7517;48.400;11.770;2023-05-17T06:20:01;13.00;73.40
14850;DHT22;7517;48.400;11.770;2023-05-17T06:22:29;13.00;73.30
14850;DHT22;7517;48.400;11.770;2023-05-17T06:24:57;13.00;73.20
14850;DHT22;7517;48.400;11.770;2023-05-17T06:27:24;13.00;73.10
14850;DHT22;7517;48.400;11.770;2023-05-17T06:29:53;13.00;73.10
14850;DHT22;7517;48.400;11.770;2023-05-17T06:32:20;13.00;74.00
14850;DHT22;7517;48.400;11.770;2023-05-17T06:34:47;13.00;73.20
14850;DHT22;7517;48.400;11.770;2023-05-17T06:37:17;13.10;73.00
14850;DHT22;7517;48.400;11.770;2023-05-17T06:39:44;13.10;73.20
14850;DHT22;7517;48.400;11.770;2023-05-17T06:42:11;13.10;73.40
14850;DHT22;7517;48.400;11.770;2023-05-17T06:44:39;13.10;73.40
14850;DHT22;7517;48.400;11.770;2023-05-17T06:47:06;13.10;73.40
14850;DHT22;7517;48.400;11.770;2023-05-17T06:49:33;13.20;73.10
14850;DHT22;7517;48.400;11.770;2023-05-17T06:52:01;13.20;73.00
14850;DHT22;7517;48.400;11.770;2023-05-17T06:54:31;13.20;73.20
14850;DHT22;7517;48.400;11.770;2023-05-17T06:56:59;13.20;73.00
14850;DHT22;7517;48.400;11.770;2023-05-17T06:59:27;13.20;72.90
14850;DHT22;7517;48.400;11.770;2023-05-17T07:01:55;13.20;72.80
14850;DHT22;7517;48.400;11.770;2023-05-17T07:04:24;13.30;73.10
14850;DHT22;7517;48.400;11.770;2023-05-17T07:06:52;13.30;73.10
14850;DHT22;7517;48.400;11.770;2023-05-17T07:09:20;13.30;73.30
14850;DHT22;7517;48.400;11.770;2023-05-17T07:11:48;13.30;73.10
14850;DHT22;7517;48.400;11.770;2023-05-17T07:14:16;13.40;73.20
14850;DHT22;7517;48.400;11.770;2023-05-17T07:16:43;13.40;73.20
14850;DHT22;7517;48.400;11.770;2023-05-17T07:19:10;13.50;73.10
14850;DHT22;7517;48.400;11.770;2023-05-17T07:21:38;13.50;73.30
14850;DHT22;7517;48.400;11.770;2023-05-17T07:24:06;13.60;73.40
14850;DHT22;7517;48.400;11.770;2023-05-17T07:26:34;13.60;73.20
14850;DHT22;7517;48.400;11.770;2023-05-17T07:29:02;13.70;73.40
14850;DHT22;7517;48.400;11.770;2023-05-17T07:31:30;13.70;73.60
14850;DHT22;7517;48.400;11.770;2023-05-17T07:33:57;13.80;73.80
14850;DHT22;7517;48.400;11.770;2023-05-17T07:36:24;13.90;73.80
14850;DHT22;7517;48.400;11.770;2023-05-17T07:38:54;13.90;73.60
14850;DHT22;7517;48.400;11.770;2023-05-17T07:41:22;14.00;73.60
14850;DHT22;7517;48.400;11.770;2023-05-17T07:43:50;14.10;74.10
14850;DHT22;7517;48.400;11.770;2023-05-17T07:46:19;14.20;73.30
14850;DHT22;7517;48.400;11.770;2023-05-17T07:48:46;14.30;73.00
14850;DHT22;7517;48.400;11.770;2023-05-17T07:51:13;14.40;72.70
14850;DHT22;7517;48.400;11.770;2023-05-17T07:53:41;14.50;72.80
14850;DHT22;7517;48.400;11.770;2023-05-17T07:56:08;14.60;72.30
14850;DHT22;7517;48.400;11.770;2023-05-17T07:58:35;14.70;72.30
14850;DHT22;7517;48.400;11.770;2023-05-17T08:01:02;14.80;72.50
14850;DHT22;7517;48.400;11.770;2023-05-17T08:03:32;14.90;72.40
14850;DHT22;7517;48.400;11.770;2023-05-17T08:05:59;14.90;72.30
14850;DHT22;7517;48.400;11.770;2023-05-17T08:08:26;15.00;72.10
14850;DHT22;7517;48.400;11.770;2023-05-17T08:10:53;15.10;71.30
14850;DHT22;7517;48.400;11.770;2023-05-17T08:13:21;15.20;71.20
14850;DHT22;7517;48.400;11.770;2023-05-17T08:15:49;15.30;71.80
14850;DHT22;7517;48.400;11.770;2023-05-17T08:18:16;15.40;72.00
14850;DHT22;7517;48.400;11.770;2023-05-17T08:20:45;15.50;71.60
14850;DHT22;7517;48.400;11.770;2023-05-17T08:23:14;15.60;71.40
14850;DHT22;7517;48.400;11.770;2023-05-17T08:25:41;15.80;71.30
14850;DHT22;7517;48.400;11.770;2023-05-17T08:28:08;15.90;71.20
14850;DHT22;7517;48.400;11.770;2023-05-17T08:30:35;16.00;70.80
14850;DHT22;7517;48.400;11.770;2023-05-17T08:33:02;16.10;70.60
14850;DHT22;7517;48.400;11.770;2023-05-17T08:35:30;16.20;70.50
14850;DHT22;7517;48.400;11.770;2023-05-17T08:37:58;16.30;70.70
14850;DHT22;7517;48.400;11.770;2023-05-17T08:40:26;16.40;69.40
14850;DHT22;7517;48.400;11.770;2023-05-17T08:42:54;16.50;70.00
14850;DHT22;7517;48.400;11.770;2023-05-17T08:45:22;16.60;69.30
14850;DHT22;7517;48.400;11.770;2023-05-17T08:47:52;16.70;69.20
14850;DHT22;7517;48.400;11.770;2023-05-17T08:50:20;16.90;69.50
14850;DHT22;7517;48.400;11.770;2023-05-17T08:52:49;17.00;69.60
14850;DHT22;7517;48.400;11.770;2023-05-17T08:55:18;17.10;68.50
14850;DHT22;7517;48.400;11.770;2023-05-17T08:57:46;17.20;67.90
14850;DHT22;7517;48.400;11.770;2023-05-17T09:00:17;17.40;68.50
14850;DHT22;7517;48.400;11.770;2023-05-17T09:02:47;17.60;68.50
14850;DHT22;7517;48.400;11.770;2023-05-17T09:05:15;17.70;68.50
14850;DHT22;7517;48.400;11.770;2023-05-17T09:07:43;17.80;68.20
14850;DHT22;7517;48.400;11.770;2023-05-17T09:10:11;17.90;68.20
14850;DHT22;7517;48.400;11.770;2023-05-17T09:12:39;18.00;67.60
14850;DHT22;7517;48.400;11.770;2023-05-17T09:15:14;18.20;67.00
14850;DHT22;7517;48.400;11.770;2023-05-17T09:17:50;18.30;65.40
14850;DHT22;7517;48.400;11.770;2023-05-17T09:20:21;18.40;65.30
14850;DHT22;7517;48.400;11.770;2023-05-17T09:22:50;18.40;65.50
14850;DHT22;7517;48.400;11.770;2023-05-17T09:25:18;18.50;65.40
14850;DHT22;7517;48.400;11.770;2023-05-17T09:27:50;18.50;64.70
14850;DHT22;7517;48.400;11.770;2023-05-17T09:30:18;18.60;65.20
14850;DHT22;7517;48.400;11.770;2023-05-17T09:32:48;18.70;64.50
14850;DHT22;7517;48.400;11.770;2023-05-17T09:35:18;18.70;63.90
14850;DHT22;7517;48.400;11.770;2023-05-17T09:37:45;18.70;63.90
14850;DHT22;7517;48.400;11.770;2023-05-17T09:40:22;18.80;63.90
14850;DHT22;7517;48.400;11.770;2023-05-17T09:42:51;18.90;62.60
14850;DHT22;7517;48.400;11.770;2023-05-17T09:45:22;18.90;63.90
14850;DHT22;7517;48.400;11.770;2023-05-17T09:47:50;19.00;63.40
14850;DHT22;7517;48.400;11.770;2023-05-17T09:50:20;19.10;64.00
14850;DHT22;7517;48.400;11.770;2023-05-17T09:52:47;19.20;64.10
14850;DHT22;7517;48.400;11.770;2023-05-17T09:55:15;19.30;63.90
14850;DHT22;7517;48.400;11.770;2023-05-17T09:57:43;19.40;64.00
14850;DHT22;7517;48.400;11.770;2023-05-17T10:00:15;19.60;64.90
14850;DHT22;7517;48.400;11.770;2023-05-17T10:02:45;19.70;63.00
14850;DHT22;7517;48.400;11.770;2023-05-17T10:05:16;19.80;63.30
14850;DHT22;7517;48.400;11.770;2023-05-17T10:07:46;20.00;63.00
14850;DHT22;7517;48.400;11.770;2023-05-17T10:10:16;20.10;63.70
14850;DHT22;7517;48.400;11.770;2023-05-17T10:12:43;20.20;64.30
14850;DHT22;7517;48.400;11.770;2023-05-17T10:15:14;20.30;64.40
14850;DHT22;7517;48.400;11.770;2023-05-17T10:17:43;20.50;62.70
14850;DHT22;7517;48.400;11.770;2023-05-17T10:20:13;20.70;63.00
14850;DHT22;7517;48.400;11.770;2023-05-17T10:22:42;20.80;61.40
14850;DHT22;7517;48.400;11.770;2023-05-17T10:25:12;21.00;62.20
14850;DHT22;7517;48.400;11.770;2023-05-17T10:27:39;21.10;62.10
14850;DHT22;7517;48.400;11.770;2023-05-17T10:30:08;21.30;62.10
14850;DHT22;7517;48.400;11.770;2023-05-17T10:32:41;21.40;62.10
14850;DHT22;7517;48.400;11.770;2023-05-17T10:35:09;21.50;61.50
14850;DHT22;7517;48.400;11.770;2023-05-17T10:37:40;21.60;60.90
14850;DHT22;7517;48.400;11.770;2023-05-17T10:40:08;21.70;60.60
14850;DHT22;7517;48.400;11.770;2023-05-17T10:42:40;21.80;60.90
14850;DHT22;7517;48.400;11.770;2023-05-17T10:45:12;21.90;59.70
14850;DHT22;7517;48.400;11.770;2023-05-17T10:47:41;22.00;59.70
14850;DHT22;7517;48.400;11.770;2023-05-17T10:50:10;22.00;58.80
14850;DHT22;7517;48.400;11.770;2023-05-17T10:52:47;22.00;57.50
14850;DHT22;7517;48.400;11.770;2023-05-17T10:55:19;22.00;55.90
14850;DHT22;7517;48.400;11.770;2023-05-17T10:58:09;21.90;55.20
14850;DHT22;7517;48.400;11.770;2023-05-17T11:00:42;21.70;53.70
14850;DHT22;7517;48.400;11.770;2023-05-17T11:03:15;21.60;55.30
14850;DHT22;7517;48.400;11.770;2023-05-17T11:05:44;21.40;55.40
14850;DHT22;7517;48.400;11.770;2023-05-17T11:08:42;21.20;55.00
14850;DHT22;7517;48.400;11.770;2023-05-17T11:11:13;21.10;54.90
14850;DHT22;7517;48.400;11.770;2023-05-17T11:13:44;20.90;54.90
14850;DHT22;7517;48.400;11.770;2023-05-17T11:16:26;20.80;55.30
14850;DHT22;7517;48.400;11.770;2023-05-17T11:19:08;20.60;54.30
14850;DHT22;7517;48.400;11.770;2023-05-17T11:21:44;20.50;54.80
14850;DHT22;7517;48.400;11.770;2023-05-17T11:24:15;20.40;55.20
14850;DHT22;7517;48.400;11.770;2023-05-17T11:26:54;20.30;55.60
14850;DHT22;7517;48.400;11.770;2023-05-17T11:29:28;20.20;55.50
14850;DHT22;7517;48.400;11.770;2023-05-17T11:31:56;20.10;55.20
14850;DHT22;7517;48.400;11.770;2023-05-17T11:34:26;20.00;55.80
14850;DHT22;7517;48.400;11.770;2023-05-17T11:36:54;19.90;55.60
14850;DHT22;7517;48.400;11.770;2023-05-17T11:39:23;19.80;56.00
14850;DHT22;7517;48.400;11.770;2023-05-17T11:41:52;19.70;55.70
14850;DHT22;7517;48.400;11.770;2023-05-17T11:44:23;19.70;55.90
14850;DHT22;7517;48.400;11.770;2023-05-17T11:47:01;19.60;55.40
14850;DHT22;7517;48.400;11.770;2023-05-17T11:49:36;19.60;55.10
14850;DHT22;7517;48.400;11.770;2023-05-17T11:52:05;19.50;55.80
14850;DHT22;7517;48.400;11.770;2023-05-17T11:54:33;19.40;56.40
14850;DHT22;7517;48.400;11.770;2023-05-17T11:57:01;19.40;56.50
14850;DHT22;7517;48.400;11.770;2023-05-17T11:59:35;19.40;56.60
14850;DHT22;7517;48.400;11.770;2023-05-17T12:02:05;19.30;55.60
14850;DHT22;7517;48.400;11.770;2023-05-17T12:04:36;19.30;56.20
14850;DHT22;7517;48.400;11.770;2023-05-17T12:07:07;19.20;56.20
14850;DHT22;7517;48.400;11.770;2023-05-17T12:09:37;19.20;58.00
14850;DHT22;7517;48.400;11.770;2023-05-17T12:12:05;19.20;57.30
14850;DHT22;7517;48.400;11.770;2023-05-17T12:14:33;19.20;57.20
14850;DHT22;7517;48.400;11.770;2023-05-17T12:17:02;19.10;57.10
14850;DHT22;7517;48.400;11.770;2023-05-17T12:19:35;19.10;57.00
14850;DHT22;7517;48.400;11.770;2023-05-17T12:22:06;19.10;57.40
14850;DHT22;7517;48.400;11.770;2023-05-17T12:24:37;19.10;56.70
14850;DHT22;7517;48.400;11.770;2023-05-17T12:27:05;19.10;58.00
14850;DHT22;7517;48.400;11.770;2023-05-17T12:29:32;19.10;57.90
14850;DHT22;7517;48.400;11.770;2023-05-17T12:32:00;19.10;57.80
14850;DHT22;7517;48.400;11.770;2023-05-17T12:34:28;19.10;57.80
14850;DHT22;7517;48.400;11.770;2023-05-17T12:36:57;19.10;58.30
14850;DHT22;7517;48.400;11.770;2023-05-17T12:39:25;19.00;58.50
14850;DHT22;7517;48.400;11.770;2023-05-17T12:41:53;19.00;58.80
14850;DHT22;7517;48.400;11.770;2023-05-17T12:44:22;19.00;58.70
14850;DHT22;7517;48.400;11.770;2023-05-17T12:46:53;19.00;58.90
14850;DHT22;7517;48.400;11.770;2023-05-17T12:49:22;19.00;58.10
14850;DHT22;7517;48.400;11.770;2023-05-17T12:51:49;18.90;58.40
14850;DHT22;7517;48.400;11.770;2023-05-17T12:54:33;18.90;58.10
14850;DHT22;7517;48.400;11.770;2023-05-17T12:57:08;18.90;57.00
14850;DHT22;7517;48.400;11.770;2023-05-17T12:59:45;18.90;57.40
14850;DHT22;7517;48.400;11.770;2023-05-17T13:02:14;18.90;57.50
14850;DHT22;7517;48.400;11.770;2023-05-17T13:04:42;18.90;58.30
14850;DHT22;7517;48.400;11.770;2023-05-17T13:07:11;18.90;58.30
14850;DHT22;7517;48.400;11.770;2023-05-17T13:09:46;18.90;58.40
14850;DHT22;7517;48.400;11.770;2023-05-17T13:12:18;18.90;57.90
14850;DHT22;7517;48.400;11.770;2023-05-17T13:14:48;18.90;57.60
14850;DHT22;7517;48.400;11.770;2023-05-17T13:17:18;18.90;57.90
14850;DHT22;7517;48.400;11.770;2023-05-17T13:19:53;18.90;57.90
14850;DHT22;7517;48.400;11.770;2023-05-17T13:22:21;18.90;58.40
14850;DHT22;7517;48.400;11.770;2023-05-17T13:24:51;18.90;58.50
14850;DHT22;7517;48.400;11.770;2023-05-17T13:27:19;18.90;58.50
14850;DHT22;7517;48.400;11.770;2023-05-17T13:29:47;18.90;58.20
14850;DHT22;7517;48.400;11.770;2023-05-17T13:32:14;18.90;58.80
14850;DHT22;7517;48.400;11.770;2023-05-17T13:34:42;18.90;59.00
14850;DHT22;7517;48.400;11.770;2023-05-17T13:37:10;18.90;58.20
14850;DHT22;7517;48.400;11.770;2023-05-17T13:39:37;18.90;58.40
14850;DHT22;7517;48.400;11.770;2023-05-17T13:42:07;18.80;58.00
14850;DHT22;7517;48.400;11.770;2023-05-17T13:44:35;18.80;57.70
14850;DHT22;7517;48.400;11.770;2023-05-17T13:47:02;18.80;58.00
14850;DHT22;7517;48.400;11.770;2023-05-17T13:49:30;18.80;58.30
14850;DHT22;7517;48.400;11.770;2023-05-17T13:51:57;18.70;58.60
14850;DHT22;7517;48.400;11.770;2023-05-17T13:54:25;18.80;59.20
14850;DHT22;7517;48.400;11.770;2023-05-17T13:56:52;18.80;59.10
14850;DHT22;7517;48.400;11.770;2023-05-17T13:59:23;18.80;59.20
14850;DHT22;7517;48.400;11.770;2023-05-17T14:01:50;18.80;59.10
14850;DHT22;7517;48.400;11.770;2023-05-17T14:04:18;18.90;58.80
14850;DHT22;7517;48.400;11.770;2023-05-17T14:06:46;18.90;58.60
14850;DHT22;7517;48.400;11.770;2023-05-17T14:09:13;18.90;58.30
14850;DHT22;7517;48.400;11.770;2023-05-17T14:11:41;18.90;59.10
14850;DHT22;7517;48.400;11.770;2023-05-17T14:14:09;19.00;59.10
14850;DHT22;7517;48.400;11.770;2023-05-17T14:16:37;19.00;59.00
14850;DHT22;7517;48.400;11.770;2023-05-17T14:19:05;19.10;58.70
14850;DHT22;7517;48.400;11.770;2023-05-17T14:21:33;19.10;58.40
14850;DHT22;7517;48.400;11.770;2023-05-17T14:24:00;19.10;58.50
14850;DHT22;7517;48.400;11.770;2023-05-17T14:26:27;19.10;58.20
14850;DHT22;7517;48.400;11.770;2023-05-17T14:28:55;19.10;57.80
14850;DHT22;7517;48.400;11.770;2023-05-17T14:31:22;19.20;58.20
14850;DHT22;7517;48.400;11.770;2023-05-17T14:33:51;19.20;58.10
14850;DHT22;7517;48.400;11.770;2023-05-17T14:36:18;19.20;58.80
14850;DHT22;7517;48.400;11.770;2023-05-17T14:38:46;19.20;59.00
14850;DHT22;7517;48.400;11.770;2023-05-17T14:41:13;19.20;58.80
14850;DHT22;7517;48.400;11.770;2023-05-17T14:43:40;19.30;58.80
14850;DHT22;7517;48.400;11.770;2023-05-17T14:46:08;19.30;58.90
14850;DHT22;7517;48.400;11.770;2023-05-17T14:48:35;19.30;59.00
14850;DHT22;7517;48.400;11.770;2023-05-17T14:51:04;19.40;59.00
14850;DHT22;7517;48.400;11.770;2023-05-17T14:53:32;19.40;58.50
14850;DHT22;7517;48.400;11.770;2023-05-17T14:55:59;19.40;58.40
14850;DHT22;7517;48.400;11.770;2023-05-17T14:58:26;19.30;58.30
14850;DHT22;7517;48.400;11.770;2023-05-17T15:00:54;19.30;58.10
14850;DHT22;7517;48.400;11.770;2023-05-17T15:03:24;19.30;58.90
14850;DHT22;7517;48.400;11.770;2023-05-17T15:05:55;19.20;58.30
14850;DHT22;7517;48.400;11.770;2023-05-17T15:08:25;19.20;57.30
14850;DHT22;7517;48.400;11.770;2023-05-17T15:10:52;19.10;57.70
14850;DHT22;7517;48.400;11.770;2023-05-17T15:13:20;19.00;58.00
14850;DHT22;7517;48.400;11.770;2023-05-17T15:15:47;19.00;58.00
14850;DHT22;7517;48.400;11.770;2023-05-17T15:18:15;18.90;58.60
14850;DHT22;7517;48.400;11.770;2023-05-17T15:20:43;18.90;58.40
14850;DHT22;7517;48.400;11.770;2023-05-17T15:23:11;18.90;58.40
14850;DHT22;7517;48.400;11.770;2023-05-17T15:25:40;18.80;58.40
14850;DHT22;7517;48.400;11.770;2023-05-17T15:28:08;18.80;58.70
14850;DHT22;7517;48.400;11.770;2023-05-17T15:30:35;18.80;58.60
14850;DHT22;7517;48.400;11.770;2023-05-17T15:33:02;18.70;58.90
14850;DHT22;7517;48.400;11.770;2023-05-17T15:35:29;18.70;58.70
14850;DHT22;7517;48.400;11.770;2023-05-17T15:37:57;18.60;58.40
14850;DHT22;7517;48.400;11.770;2023-05-17T15:40:25;18.50;58.50
14850;DHT22;7517;48.400;11.770;2023-05-17T15:42:53;18.50;58.60